Aeroporto :
LOGIN :

Iscrizione | Disclaimer

   EN    FR    IT 

 










Sommario :    VFR   VFR Marginale   IFR   IFR Intensivo   IFR Molto Intensivo
Visibilità : 
Base nubi : 
>= 8 km
>= 3000ft
5 / 8 km
1000 / 3000 ft
1500m / 5 km
500 / 1000 ft
800 / 1500m
200 / 500 ft
< 800m
< 200 ft
Simboli :   Temporali  Nebbia  Neve Forte  Precipitazioni Forti  Vento > 20 kt
SIGMETs :   Varie  Temporali  Ghiacco  Turbolenza  Onda orograficha  Ceneri Vulcaniche







- Altitudine del aeroporto : 266 ft
- Codice IATA : NCL
- Carte del aeroporto


EGNT - Newcastle

ULTIMO METAR :
  • 211850Z 13005KT 070V180 CAVOK 13/12 Q1010

METARs OBSOLETI :
  • 211820Z 13005KT 080V180 CAVOK 14/12 Q1010
  • 211750Z 13006KT 060V180 CAVOK 14/13 Q1010
  • 211720Z 13007KT 080V190 CAVOK 15/13 Q1010
  • 211650Z 12006KT 070V180 CAVOK 15/13 Q1010
  • 211620Z 13009KT 070V170 CAVOK 16/13 Q1010

TAF TAF EGNT
Valido dal 21 a 18 ore il 22 a 18 ore UTC


211704Z 2118/2218 12009KT CAVOK
TEMPO 2201/2215 6000
PROB30 2204/2208 2000 BR BKN002
PROB30
TEMPO 2206/2215 SHRA BKN045CB
TEMPO 2215/2218 7000 RA BKN025
PROB40
TEMPO 2215/2218 3000 +SHRA BKN014 BKN030CB
ATIS : +44 191 214 3400
Nessun NOTAM noto per questo aeroporto.



MetMap, La meteo Aeronautica in un colpo d'occhio ! - Copyright ORBIFLY Dicembre 2007 - Disclaimer

ORBIFLY MET'MAP TEAM :

Programmazione e sviluppo : Alexandra Zaïnal
Concezione e sviluppo : Baudouin d'Aumeries
Co-Programmazione e sviluppo : Marc-Olivier Méhu
Supporto tecnico e logistico : Manuel Goepfert
Aiuto per la traduzione : Arnaldo La Scala

Contatto : metmap@orbifly.com




FONTI E CREDITI :

   NOAA